ADY16 OBBI-OMAA
Flight info
| Callsign | ADY16 |
|---|---|
| Flight time | 0h 52m |
| Altitude | 26000 |
| Route | OBBI/12L N0382F250 DCT BHR DCT ASTAD N318 KAPUM Z522 ALNEV Q415 UKILI UKIL2J OMAA/31L |
| Aircraft | A320/M-SDE3FGHIRWY/LB1 |
Departure
| Time | 2026-04-27 18:59 |
|---|---|
| Airport | Bahrain International Airport (OBBI) |
Arrival
| Time | 2026-04-27 19:51 |
|---|---|
| Airport | Zayed International Airport (OMAA) |
| Time | Latitude | Longitude | Altitude | Speed | Heading |
|---|---|---|---|---|---|
| 2026-04-27 18:17 | 26.26725 | 50.63248 | 21 ft | 0 kts | 213° |
| 2026-04-27 18:40 | 26.26736 | 50.63256 | 22 ft | 2 kts | 213° |
| 2026-04-27 18:41 | 26.26750 | 50.63266 | 21 ft | 2 kts | 213° |
| 2026-04-27 18:41 | 26.26764 | 50.63276 | 24 ft | 2 kts | 211° |
| 2026-04-27 18:41 | 26.26778 | 50.63286 | 23 ft | 2 kts | 204° |
| 2026-04-27 18:41 | 26.26794 | 50.63289 | 25 ft | 2 kts | 158° |
| 2026-04-27 18:42 | 26.26808 | 50.63279 | 22 ft | 2 kts | 123° |
| 2026-04-27 18:42 | 26.26813 | 50.63269 | 21 ft | 2 kts | 123° |
| 2026-04-27 18:42 | 26.26819 | 50.63259 | 21 ft | 0 kts | 122° |
| 2026-04-27 18:43 | 26.26819 | 50.63260 | 21 ft | 0 kts | 122° |
| 2026-04-27 18:44 | 26.26809 | 50.63276 | 22 ft | 7 kts | 122° |
| 2026-04-27 18:45 | 26.26784 | 50.63327 | 23 ft | 8 kts | 105° |
| 2026-04-27 18:45 | 26.26827 | 50.63385 | 20 ft | 13 kts | 26° |
| 2026-04-27 18:45 | 26.26892 | 50.63339 | 21 ft | 11 kts | 302° |
| 2026-04-27 18:45 | 26.26932 | 50.63268 | 19 ft | 10 kts | 302° |
| 2026-04-27 18:46 | 26.26970 | 50.63201 | 19 ft | 11 kts | 302° |
| 2026-04-27 18:46 | 26.27019 | 50.63115 | 23 ft | 13 kts | 302° |
| 2026-04-27 18:46 | 26.27064 | 50.63037 | 24 ft | 11 kts | 302° |
| 2026-04-27 18:46 | 26.27104 | 50.62967 | 22 ft | 13 kts | 303° |
| 2026-04-27 18:47 | 26.27169 | 50.62878 | 20 ft | 16 kts | 303° |
| 2026-04-27 18:47 | 26.27228 | 50.62775 | 19 ft | 15 kts | 302° |
| 2026-04-27 18:47 | 26.27283 | 50.62679 | 19 ft | 14 kts | 303° |
| 2026-04-27 18:47 | 26.27335 | 50.62590 | 17 ft | 13 kts | 303° |
| 2026-04-27 18:48 | 26.27382 | 50.62509 | 18 ft | 12 kts | 302° |
| 2026-04-27 18:48 | 26.27426 | 50.62433 | 17 ft | 13 kts | 303° |
| 2026-04-27 18:48 | 26.27483 | 50.62333 | 17 ft | 16 kts | 303° |
| 2026-04-27 18:48 | 26.27550 | 50.62217 | 16 ft | 18 kts | 302° |
| 2026-04-27 18:49 | 26.27612 | 50.62109 | 16 ft | 16 kts | 303° |
| 2026-04-27 18:49 | 26.27668 | 50.62013 | 18 ft | 14 kts | 303° |
| 2026-04-27 18:49 | 26.27721 | 50.61922 | 16 ft | 14 kts | 303° |
| 2026-04-27 18:49 | 26.27771 | 50.61837 | 17 ft | 12 kts | 303° |
| 2026-04-27 18:50 | 26.27813 | 50.61764 | 17 ft | 11 kts | 303° |
| 2026-04-27 18:50 | 26.27865 | 50.61679 | 17 ft | 14 kts | 309° |
| 2026-04-27 18:50 | 26.27947 | 50.61648 | 18 ft | 12 kts | 7° |
| 2026-04-27 18:50 | 26.28012 | 50.61683 | 18 ft | 10 kts | 39° |
| 2026-04-27 18:51 | 26.28015 | 50.61744 | 18 ft | 8 kts | 121° |
| 2026-04-27 18:51 | 26.28008 | 50.61757 | 18 ft | 0 kts | 123° |
| 2026-04-27 18:58 | 26.27998 | 50.61774 | 18 ft | 15 kts | 123° |
| 2026-04-27 18:58 | 26.27895 | 50.61951 | 18 ft | 65 kts | 122° |
| 2026-04-27 18:58 | 26.27365 | 50.62875 | 18 ft | 142 kts | 122° |
| 2026-04-27 18:58 | 26.26752 | 50.63920 | 254 ft | 164 kts | 123° |
| 2026-04-27 18:59 | 26.26119 | 50.64965 | 903 ft | 163 kts | 123° |
| 2026-04-27 18:59 | 26.25750 | 50.66194 | 1376 ft | 179 kts | 91° |
| 2026-04-27 18:59 | 26.26003 | 50.67650 | 1623 ft | 204 kts | 78° |
| 2026-04-27 18:59 | 26.26387 | 50.69264 | 1825 ft | 228 kts | 79° |
| 2026-04-27 19:00 | 26.26600 | 50.70452 | 2028 ft | 243 kts | 83° |
| 2026-04-27 19:00 | 26.27011 | 50.73078 | 2597 ft | 268 kts | 82° |
| 2026-04-27 19:00 | 26.27330 | 50.75158 | 3206 ft | 277 kts | 82° |
| 2026-04-27 19:00 | 26.27658 | 50.77298 | 3777 ft | 284 kts | 81° |
| 2026-04-27 19:01 | 26.27995 | 50.79484 | 4052 ft | 289 kts | 81° |
| 2026-04-27 19:01 | 26.28226 | 50.80981 | 4593 ft | 290 kts | 81° |
| 2026-04-27 19:01 | 26.28567 | 50.83204 | 5359 ft | 293 kts | 81° |
| 2026-04-27 19:01 | 26.28910 | 50.85448 | 6144 ft | 295 kts | 81° |
| 2026-04-27 19:02 | 26.29257 | 50.87707 | 6883 ft | 298 kts | 80° |
| 2026-04-27 19:02 | 26.29609 | 50.89995 | 7608 ft | 301 kts | 80° |
| 2026-04-27 19:02 | 26.29939 | 50.92318 | 8333 ft | 305 kts | 86° |
| 2026-04-27 19:02 | 26.29837 | 50.94691 | 9043 ft | 308 kts | 102° |
| 2026-04-27 19:03 | 26.29150 | 50.96956 | 9756 ft | 310 kts | 119° |
| 2026-04-27 19:03 | 26.28091 | 50.99076 | 10310 ft | 320 kts | 121° |
| 2026-04-27 19:03 | 26.26957 | 51.01309 | 10492 ft | 343 kts | 121° |
| 2026-04-27 19:03 | 26.26167 | 51.02869 | 10706 ft | 353 kts | 121° |
| 2026-04-27 19:04 | 26.24538 | 51.06104 | 11466 ft | 362 kts | 120° |
| 2026-04-27 19:04 | 26.23298 | 51.08573 | 12099 ft | 367 kts | 120° |
| 2026-04-27 19:04 | 26.22045 | 51.11073 | 12726 ft | 372 kts | 120° |
| 2026-04-27 19:04 | 26.20773 | 51.13607 | 13357 ft | 377 kts | 120° |
| 2026-04-27 19:05 | 26.19483 | 51.16172 | 13951 ft | 382 kts | 120° |
| 2026-04-27 19:05 | 26.18182 | 51.18758 | 14556 ft | 384 kts | 120° |
| 2026-04-27 19:05 | 26.16870 | 51.21362 | 15175 ft | 387 kts | 121° |
| 2026-04-27 19:05 | 26.15548 | 51.23980 | 15788 ft | 389 kts | 121° |
| 2026-04-27 19:06 | 26.14216 | 51.26621 | 16404 ft | 392 kts | 121° |
| 2026-04-27 19:06 | 26.12879 | 51.29278 | 17012 ft | 394 kts | 121° |
| 2026-04-27 19:06 | 26.11533 | 51.31948 | 17618 ft | 397 kts | 122° |
| 2026-04-27 19:06 | 26.10175 | 51.34640 | 18196 ft | 400 kts | 122° |
| 2026-04-27 19:07 | 26.08805 | 51.37346 | 18676 ft | 404 kts | 122° |
| 2026-04-27 19:07 | 26.07420 | 51.40084 | 19135 ft | 408 kts | 122° |
| 2026-04-27 19:07 | 26.06021 | 51.42847 | 19595 ft | 412 kts | 122° |
| 2026-04-27 19:07 | 26.04605 | 51.45642 | 20060 ft | 417 kts | 123° |
| 2026-04-27 19:08 | 26.03172 | 51.48465 | 20498 ft | 422 kts | 123° |
| 2026-04-27 19:08 | 26.01722 | 51.51318 | 20955 ft | 426 kts | 123° |
| 2026-04-27 19:08 | 26.00257 | 51.54205 | 21408 ft | 430 kts | 123° |
| 2026-04-27 19:08 | 25.98777 | 51.57121 | 21849 ft | 435 kts | 123° |
| 2026-04-27 19:09 | 25.97278 | 51.60071 | 22285 ft | 440 kts | 124° |
| 2026-04-27 19:09 | 25.95765 | 51.63051 | 22720 ft | 445 kts | 124° |
| 2026-04-27 19:09 | 25.94258 | 51.66019 | 23154 ft | 449 kts | 124° |
| 2026-04-27 19:09 | 25.92717 | 51.69057 | 23557 ft | 453 kts | 124° |
| 2026-04-27 19:10 | 25.91159 | 51.72119 | 23937 ft | 456 kts | 124° |
| 2026-04-27 19:10 | 25.89600 | 51.75194 | 24331 ft | 458 kts | 123° |
| 2026-04-27 19:10 | 25.88059 | 51.78306 | 24720 ft | 461 kts | 123° |
| 2026-04-27 19:10 | 25.87023 | 51.80424 | 24906 ft | 463 kts | 123° |
| 2026-04-27 19:11 | 25.85003 | 51.84589 | 25011 ft | 462 kts | 122° |
| 2026-04-27 19:11 | 25.83488 | 51.87737 | 25018 ft | 462 kts | 122° |
| 2026-04-27 19:11 | 25.82028 | 51.90972 | 25016 ft | 463 kts | 120° |
| 2026-04-27 19:11 | 25.80662 | 51.94209 | 25019 ft | 464 kts | 118° |
| 2026-04-27 19:12 | 25.79335 | 51.97473 | 25021 ft | 464 kts | 118° |
| 2026-04-27 19:12 | 25.78020 | 52.00740 | 25025 ft | 464 kts | 118° |
| 2026-04-27 19:12 | 25.76696 | 52.04008 | 25026 ft | 464 kts | 118° |
| 2026-04-27 19:12 | 25.75354 | 52.07261 | 25026 ft | 463 kts | 118° |
| 2026-04-27 19:13 | 25.73996 | 52.10503 | 25026 ft | 463 kts | 119° |
| 2026-04-27 19:13 | 25.72627 | 52.13735 | 25026 ft | 463 kts | 119° |
| 2026-04-27 19:13 | 25.71250 | 52.16966 | 25025 ft | 463 kts | 119° |
| 2026-04-27 19:13 | 25.69870 | 52.20196 | 25024 ft | 463 kts | 119° |
| 2026-04-27 19:14 | 25.68494 | 52.23421 | 25027 ft | 463 kts | 119° |
| 2026-04-27 19:14 | 25.67121 | 52.26653 | 25026 ft | 463 kts | 119° |
| 2026-04-27 19:14 | 25.65752 | 52.29885 | 25025 ft | 463 kts | 119° |
| 2026-04-27 19:14 | 25.64386 | 52.33116 | 25024 ft | 463 kts | 118° |
| 2026-04-27 19:15 | 25.63022 | 52.36344 | 25025 ft | 462 kts | 118° |
| 2026-04-27 19:15 | 25.61652 | 52.39558 | 25024 ft | 461 kts | 120° |
| 2026-04-27 19:15 | 25.60196 | 52.42725 | 25024 ft | 460 kts | 122° |
| 2026-04-27 19:15 | 25.58657 | 52.45822 | 25022 ft | 458 kts | 123° |
| 2026-04-27 19:16 | 25.57068 | 52.48880 | 25028 ft | 457 kts | 124° |
| 2026-04-27 19:16 | 25.56005 | 52.50898 | 25028 ft | 457 kts | 124° |
| 2026-04-27 19:16 | 25.53865 | 52.54972 | 25023 ft | 457 kts | 124° |
| 2026-04-27 19:16 | 25.52286 | 52.58020 | 25025 ft | 457 kts | 123° |
| 2026-04-27 19:17 | 25.50723 | 52.61085 | 24951 ft | 456 kts | 123° |
| 2026-04-27 19:17 | 25.49208 | 52.64098 | 24944 ft | 439 kts | 123° |
| 2026-04-27 19:17 | 25.47756 | 52.67002 | 24896 ft | 424 kts | 123° |
| 2026-04-27 19:17 | 25.46323 | 52.69850 | 24952 ft | 429 kts | 123° |
| 2026-04-27 19:18 | 25.44834 | 52.72778 | 24956 ft | 443 kts | 123° |
| 2026-04-27 19:18 | 25.43270 | 52.75744 | 24954 ft | 448 kts | 124° |
| 2026-04-27 19:18 | 25.41660 | 52.78696 | 24952 ft | 448 kts | 125° |
| 2026-04-27 19:18 | 25.40023 | 52.81632 | 24951 ft | 448 kts | 125° |
| 2026-04-27 19:19 | 25.38371 | 52.84559 | 24951 ft | 448 kts | 125° |
| 2026-04-27 19:19 | 25.36715 | 52.87482 | 24952 ft | 448 kts | 125° |
| 2026-04-27 19:19 | 25.35067 | 52.90406 | 24946 ft | 448 kts | 125° |
| 2026-04-27 19:19 | 25.33427 | 52.93329 | 24948 ft | 448 kts | 125° |
| 2026-04-27 19:20 | 25.31806 | 52.96267 | 24955 ft | 448 kts | 121° |
| 2026-04-27 19:20 | 25.30472 | 52.99391 | 24955 ft | 450 kts | 116° |
| 2026-04-27 19:20 | 25.29193 | 53.02550 | 24947 ft | 450 kts | 116° |
| 2026-04-27 19:20 | 25.27908 | 53.05709 | 24952 ft | 450 kts | 117° |
| 2026-04-27 19:21 | 25.26620 | 53.08865 | 24802 ft | 450 kts | 117° |
| 2026-04-27 19:21 | 25.25336 | 53.12005 | 24826 ft | 449 kts | 117° |
| 2026-04-27 19:21 | 25.24048 | 53.15152 | 24820 ft | 449 kts | 117° |
| 2026-04-27 19:21 | 25.22757 | 53.18300 | 24827 ft | 450 kts | 117° |
| 2026-04-27 19:22 | 25.21464 | 53.21447 | 24825 ft | 450 kts | 117° |
| 2026-04-27 19:22 | 25.20169 | 53.24589 | 24825 ft | 450 kts | 117° |
| 2026-04-27 19:22 | 25.18870 | 53.27737 | 24822 ft | 450 kts | 117° |
| 2026-04-27 19:22 | 25.17405 | 53.30773 | 24820 ft | 446 kts | 127° |
| 2026-04-27 19:23 | 25.15513 | 53.33471 | 24828 ft | 443 kts | 134° |
| 2026-04-27 19:23 | 25.13550 | 53.36094 | 24829 ft | 443 kts | 134° |
| 2026-04-27 19:23 | 25.11583 | 53.38718 | 24812 ft | 444 kts | 134° |
| 2026-04-27 19:23 | 25.09629 | 53.41331 | 24585 ft | 436 kts | 134° |
| 2026-04-27 19:24 | 25.07723 | 53.43887 | 24357 ft | 426 kts | 134° |
| 2026-04-27 19:24 | 25.05858 | 53.46385 | 24129 ft | 417 kts | 134° |
| 2026-04-27 19:24 | 25.04030 | 53.48823 | 23910 ft | 408 kts | 134° |
| 2026-04-27 19:24 | 25.02241 | 53.51204 | 23682 ft | 399 kts | 134° |
| 2026-04-27 19:25 | 25.00477 | 53.53547 | 23462 ft | 395 kts | 134° |
| 2026-04-27 19:25 | 24.98723 | 53.55854 | 23215 ft | 391 kts | 137° |
| 2026-04-27 19:25 | 24.96759 | 53.57867 | 22950 ft | 382 kts | 148° |
| 2026-04-27 19:25 | 24.94553 | 53.59418 | 22627 ft | 370 kts | 159° |
| 2026-04-27 19:26 | 24.92258 | 53.60651 | 22196 ft | 366 kts | 160° |
| 2026-04-27 19:26 | 24.89969 | 53.61868 | 21763 ft | 364 kts | 160° |
| 2026-04-27 19:26 | 24.87694 | 53.63077 | 21341 ft | 362 kts | 160° |
| 2026-04-27 19:26 | 24.85426 | 53.64288 | 20922 ft | 360 kts | 160° |
| 2026-04-27 19:27 | 24.83175 | 53.65489 | 20501 ft | 359 kts | 160° |
| 2026-04-27 19:27 | 24.80930 | 53.66686 | 20081 ft | 358 kts | 159° |
| 2026-04-27 19:27 | 24.78720 | 53.67953 | 19670 ft | 360 kts | 152° |
| 2026-04-27 19:27 | 24.76751 | 53.69691 | 19228 ft | 367 kts | 138° |
| 2026-04-27 19:28 | 24.75169 | 53.71919 | 18786 ft | 373 kts | 124° |
| 2026-04-27 19:28 | 24.73896 | 53.74411 | 18342 ft | 374 kts | 122° |
| 2026-04-27 19:28 | 24.72629 | 53.76915 | 17868 ft | 375 kts | 122° |
| 2026-04-27 19:28 | 24.71359 | 53.79423 | 17408 ft | 374 kts | 122° |
| 2026-04-27 19:29 | 24.70094 | 53.81920 | 16973 ft | 373 kts | 122° |
| 2026-04-27 19:29 | 24.68830 | 53.84411 | 16532 ft | 372 kts | 121° |
| 2026-04-27 19:29 | 24.67570 | 53.86887 | 16103 ft | 371 kts | 121° |
| 2026-04-27 19:29 | 24.66309 | 53.89357 | 15666 ft | 370 kts | 121° |
| 2026-04-27 19:30 | 24.65051 | 53.91818 | 15332 ft | 366 kts | 121° |
| 2026-04-27 19:30 | 24.63986 | 53.94361 | 14972 ft | 364 kts | 109° |
| 2026-04-27 19:30 | 24.63465 | 53.97034 | 14821 ft | 351 kts | 98° |
| 2026-04-27 19:30 | 24.63162 | 53.99660 | 14366 ft | 342 kts | 97° |
| 2026-04-27 19:31 | 24.62869 | 54.02224 | 13958 ft | 334 kts | 97° |
| 2026-04-27 19:31 | 24.62583 | 54.04748 | 13735 ft | 332 kts | 97° |
| 2026-04-27 19:31 | 24.62302 | 54.07263 | 13499 ft | 330 kts | 97° |
| 2026-04-27 19:31 | 24.62023 | 54.09760 | 13242 ft | 329 kts | 97° |
| 2026-04-27 19:32 | 24.61743 | 54.12253 | 12991 ft | 327 kts | 97° |
| 2026-04-27 19:32 | 24.61557 | 54.13895 | 12819 ft | 327 kts | 97° |
| 2026-04-27 19:32 | 24.61184 | 54.17177 | 12494 ft | 325 kts | 97° |
| 2026-04-27 19:32 | 24.60995 | 54.18838 | 12330 ft | 324 kts | 97° |
| 2026-04-27 19:33 | 24.60716 | 54.21291 | 12082 ft | 323 kts | 96° |
| 2026-04-27 19:33 | 24.60531 | 54.22914 | 11920 ft | 322 kts | 96° |
| 2026-04-27 19:33 | 24.60162 | 54.26168 | 11598 ft | 321 kts | 96° |
| 2026-04-27 19:33 | 24.59883 | 54.28596 | 11357 ft | 319 kts | 96° |
| 2026-04-27 19:34 | 24.59604 | 54.31012 | 11120 ft | 318 kts | 96° |
| 2026-04-27 19:34 | 24.59307 | 54.33422 | 10883 ft | 318 kts | 100° |
| 2026-04-27 19:34 | 24.58824 | 54.35786 | 10797 ft | 317 kts | 101° |
| 2026-04-27 19:34 | 24.58340 | 54.38153 | 10808 ft | 317 kts | 101° |
| 2026-04-27 19:35 | 24.57859 | 54.40520 | 10809 ft | 317 kts | 101° |
| 2026-04-27 19:35 | 24.57379 | 54.42886 | 10809 ft | 317 kts | 101° |
| 2026-04-27 19:35 | 24.56899 | 54.45251 | 10809 ft | 317 kts | 101° |
| 2026-04-27 19:35 | 24.56420 | 54.47617 | 10717 ft | 318 kts | 101° |
| 2026-04-27 19:36 | 24.55944 | 54.49983 | 10520 ft | 316 kts | 101° |
| 2026-04-27 19:36 | 24.55471 | 54.52337 | 10333 ft | 315 kts | 101° |
| 2026-04-27 19:36 | 24.55003 | 54.54681 | 10138 ft | 314 kts | 101° |
| 2026-04-27 19:36 | 24.54534 | 54.57019 | 9957 ft | 313 kts | 100° |
| 2026-04-27 19:37 | 24.54066 | 54.59350 | 9779 ft | 312 kts | 100° |
| 2026-04-27 19:37 | 24.53597 | 54.61675 | 9592 ft | 311 kts | 100° |
| 2026-04-27 19:37 | 24.53131 | 54.63990 | 9396 ft | 310 kts | 100° |
| 2026-04-27 19:37 | 24.52664 | 54.66301 | 9219 ft | 310 kts | 100° |
| 2026-04-27 19:38 | 24.52197 | 54.68607 | 9032 ft | 309 kts | 100° |
| 2026-04-27 19:38 | 24.51629 | 54.70878 | 8865 ft | 310 kts | 110° |
| 2026-04-27 19:38 | 24.50592 | 54.72957 | 8756 ft | 311 kts | 126° |
| 2026-04-27 19:38 | 24.49266 | 54.74835 | 8580 ft | 311 kts | 127° |
| 2026-04-27 19:39 | 24.47930 | 54.76705 | 8346 ft | 310 kts | 127° |
| 2026-04-27 19:39 | 24.46615 | 54.78551 | 8170 ft | 301 kts | 127° |
| 2026-04-27 19:39 | 24.45352 | 54.80325 | 8006 ft | 292 kts | 127° |
| 2026-04-27 19:39 | 24.44117 | 54.82060 | 7829 ft | 284 kts | 127° |
| 2026-04-27 19:40 | 24.42896 | 54.83772 | 7717 ft | 286 kts | 127° |
| 2026-04-27 19:40 | 24.41670 | 54.85493 | 7542 ft | 286 kts | 127° |
| 2026-04-27 19:40 | 24.40449 | 54.87209 | 7343 ft | 285 kts | 127° |
| 2026-04-27 19:40 | 24.39230 | 54.88925 | 7147 ft | 285 kts | 127° |
| 2026-04-27 19:41 | 24.38014 | 54.90638 | 6949 ft | 284 kts | 127° |
| 2026-04-27 19:41 | 24.36799 | 54.92345 | 6752 ft | 284 kts | 127° |
| 2026-04-27 19:41 | 24.35571 | 54.94070 | 6563 ft | 283 kts | 127° |
| 2026-04-27 19:41 | 24.34358 | 54.95768 | 6364 ft | 282 kts | 127° |
| 2026-04-27 19:42 | 24.33145 | 54.97461 | 6151 ft | 282 kts | 127° |
| 2026-04-27 19:42 | 24.31765 | 54.99009 | 5559 ft | 291 kts | 146° |
| 2026-04-27 19:42 | 24.29871 | 54.99874 | 4801 ft | 301 kts | 173° |
| 2026-04-27 19:42 | 24.27820 | 54.99745 | 4223 ft | 289 kts | 201° |
| 2026-04-27 19:43 | 24.26135 | 54.98788 | 4055 ft | 259 kts | 224° |
| 2026-04-27 19:43 | 24.24997 | 54.97378 | 4003 ft | 236 kts | 246° |
| 2026-04-27 19:43 | 24.24423 | 54.95798 | 4005 ft | 212 kts | 265° |
| 2026-04-27 19:43 | 24.24337 | 54.94258 | 4007 ft | 198 kts | 282° |
| 2026-04-27 19:44 | 24.24649 | 54.92818 | 4010 ft | 192 kts | 297° |
| 2026-04-27 19:44 | 24.25285 | 54.91550 | 4011 ft | 190 kts | 306° |
| 2026-04-27 19:44 | 24.26002 | 54.90334 | 4009 ft | 190 kts | 306° |
| 2026-04-27 19:44 | 24.26716 | 54.89113 | 4007 ft | 190 kts | 306° |
| 2026-04-27 19:45 | 24.27431 | 54.87889 | 4009 ft | 191 kts | 306° |
| 2026-04-27 19:45 | 24.28147 | 54.86662 | 4012 ft | 191 kts | 306° |
| 2026-04-27 19:45 | 24.28888 | 54.85457 | 3970 ft | 191 kts | 309° |
| 2026-04-27 19:45 | 24.29679 | 54.84291 | 3795 ft | 190 kts | 310° |
| 2026-04-27 19:46 | 24.30483 | 54.83149 | 3604 ft | 187 kts | 310° |
| 2026-04-27 19:46 | 24.31274 | 54.82035 | 3363 ft | 182 kts | 310° |
| 2026-04-27 19:46 | 24.32044 | 54.80953 | 3128 ft | 177 kts | 311° |
| 2026-04-27 19:46 | 24.32792 | 54.79903 | 2907 ft | 173 kts | 310° |
| 2026-04-27 19:47 | 24.33522 | 54.78877 | 2693 ft | 168 kts | 310° |
| 2026-04-27 19:47 | 24.34237 | 54.77874 | 2483 ft | 165 kts | 310° |
| 2026-04-27 19:47 | 24.34926 | 54.76905 | 2278 ft | 155 kts | 310° |
| 2026-04-27 19:47 | 24.35569 | 54.76002 | 2098 ft | 145 kts | 310° |
| 2026-04-27 19:48 | 24.36180 | 54.75143 | 1919 ft | 141 kts | 310° |
| 2026-04-27 19:48 | 24.36782 | 54.74298 | 1737 ft | 140 kts | 310° |
| 2026-04-27 19:48 | 24.37376 | 54.73463 | 1562 ft | 139 kts | 310° |
| 2026-04-27 19:48 | 24.37968 | 54.72630 | 1384 ft | 138 kts | 310° |
| 2026-04-27 19:49 | 24.38556 | 54.71804 | 1208 ft | 137 kts | 310° |
| 2026-04-27 19:49 | 24.39138 | 54.70985 | 1034 ft | 137 kts | 309° |
| 2026-04-27 19:49 | 24.39741 | 54.70140 | 847 ft | 141 kts | 307° |
| 2026-04-27 19:49 | 24.40343 | 54.69294 | 683 ft | 145 kts | 307° |
| 2026-04-27 19:50 | 24.40971 | 54.68408 | 550 ft | 146 kts | 308° |
| 2026-04-27 19:50 | 24.41595 | 54.67534 | 332 ft | 146 kts | 305° |
| 2026-04-27 19:50 | 24.42217 | 54.66654 | 120 ft | 146 kts | 307° |
| 2026-04-27 19:50 | 24.42783 | 54.65855 | 92 ft | 112 kts | 308° |
| 2026-04-27 19:51 | 24.43164 | 54.65319 | 93 ft | 70 kts | 308° |
| 2026-04-27 19:51 | 24.43431 | 54.64944 | 94 ft | 56 kts | 308° |
| 2026-04-27 19:51 | 24.43654 | 54.64630 | 94 ft | 48 kts | 308° |
| 2026-04-27 19:51 | 24.43845 | 54.64359 | 92 ft | 42 kts | 307° |
| 2026-04-27 19:52 | 24.44012 | 54.64123 | 92 ft | 37 kts | 308° |
| 2026-04-27 19:52 | 24.44167 | 54.63909 | 95 ft | 35 kts | 308° |
| 2026-04-27 19:52 | 24.44298 | 54.63722 | 89 ft | 22 kts | 308° |
| 2026-04-27 19:52 | 24.44374 | 54.63613 | 91 ft | 15 kts | 308° |
| 2026-04-27 19:53 | 24.44496 | 54.63591 | 94 ft | 9 kts | 39° |
| 2026-04-27 19:53 | 24.44542 | 54.63631 | 93 ft | 7 kts | 37° |
| 2026-04-27 19:53 | 24.44579 | 54.63660 | 93 ft | 6 kts | 35° |
| 2026-04-27 19:54 | 24.44608 | 54.63682 | 91 ft | 5 kts | 34° |
| 2026-04-27 19:54 | 24.44640 | 54.63689 | 91 ft | 8 kts | 351° |
| 2026-04-27 19:54 | 24.44688 | 54.63638 | 93 ft | 11 kts | 307° |
| 2026-04-27 19:54 | 24.44735 | 54.63572 | 92 ft | 11 kts | 308° |
| 2026-04-27 19:55 | 24.44792 | 54.63527 | 92 ft | 8 kts | 359° |
| 2026-04-27 19:55 | 24.44820 | 54.63564 | 92 ft | 6 kts | 68° |
| 2026-04-27 19:55 | 24.44828 | 54.63585 | 94 ft | 1 kts | 67° |
| 2026-04-27 19:55 | 24.44829 | 54.63587 | 94 ft | 0 kts | 67° |